createdAt,value
2023-03-12T00:00:55.139Z,2.10
2023-03-12T00:03:41.849Z,2.10
2023-03-12T00:06:29.174Z,2.00
2023-03-12T00:09:15.735Z,2.00
2023-03-12T00:12:02.165Z,2.00
2023-03-12T00:14:48.674Z,2.00
2023-03-12T00:17:36.444Z,2.00
2023-03-12T00:20:23.496Z,2.00
2023-03-12T00:23:10.051Z,2.00
2023-03-12T00:26:01.257Z,2.00
2023-03-12T00:28:49.136Z,1.90
2023-03-12T00:31:36.475Z,1.90
2023-03-12T00:34:24.581Z,1.90
2023-03-12T00:37:11.317Z,1.80
2023-03-12T00:39:57.947Z,1.80
2023-03-12T00:42:44.445Z,1.80
2023-03-12T00:45:30.909Z,1.70
2023-03-12T00:48:17.177Z,1.70
2023-03-12T00:51:05.323Z,1.70
2023-03-12T00:53:51.776Z,1.60
2023-03-12T00:56:38.821Z,1.60
2023-03-12T00:59:25.512Z,1.60
2023-03-12T01:02:12.035Z,1.50
2023-03-12T01:04:58.420Z,1.50
2023-03-12T01:07:46.172Z,1.50
2023-03-12T01:10:33.049Z,1.40
2023-03-12T01:13:19.478Z,1.40
2023-03-12T01:16:06.464Z,1.40
2023-03-12T01:18:53.094Z,1.40
2023-03-12T01:21:39.620Z,1.40
2023-03-12T01:24:27.317Z,1.40
2023-03-12T01:27:13.781Z,1.40
2023-03-12T01:30:00.410Z,1.40
2023-03-12T01:32:46.894Z,1.40
2023-03-12T01:35:37.850Z,1.40
2023-03-12T01:38:24.691Z,1.40
2023-03-12T01:41:13.258Z,1.40
2023-03-12T01:44:01.615Z,1.30
2023-03-12T01:46:48.233Z,1.30
2023-03-12T01:49:35.970Z,1.30
2023-03-12T01:52:25.903Z,1.30
2023-03-12T01:55:16.204Z,1.30
2023-03-12T01:58:04.091Z,1.30
2023-03-12T02:00:50.851Z,1.40
2023-03-12T02:03:38.804Z,1.40
2023-03-12T02:06:31.531Z,1.40
2023-03-12T02:09:20.639Z,1.40
2023-03-12T02:12:08.373Z,1.40
2023-03-12T02:14:56.369Z,1.40
2023-03-12T02:17:43.248Z,1.40
2023-03-12T02:20:37.646Z,1.40
2023-03-12T02:23:30.070Z,1.40
2023-03-12T02:26:20.158Z,1.40
2023-03-12T02:29:08.003Z,1.50
2023-03-12T02:31:57.002Z,1.40
2023-03-12T02:34:43.377Z,1.50
2023-03-12T02:37:29.955Z,1.50
2023-03-12T02:40:22.945Z,1.40
2023-03-12T02:43:11.792Z,1.40
2023-03-12T02:45:58.273Z,1.40
2023-03-12T02:48:45.154Z,1.30
2023-03-12T02:51:31.997Z,1.30
2023-03-12T02:54:20.197Z,1.30
2023-03-12T02:57:06.855Z,1.30
2023-03-12T02:59:54.518Z,1.30
2023-03-12T03:02:41.738Z,1.30
2023-03-12T03:05:28.569Z,1.20
2023-03-12T03:08:15.219Z,1.20
2023-03-12T03:11:03.132Z,1.20
2023-03-12T03:13:49.670Z,1.10
2023-03-12T03:16:37.972Z,1.10
2023-03-12T03:19:24.779Z,1.00
2023-03-12T03:22:11.493Z,1.00
2023-03-12T03:24:57.942Z,0.90
2023-03-12T03:27:44.398Z,0.90
2023-03-12T03:30:31.532Z,0.90
2023-03-12T03:33:19.574Z,1.00
2023-03-12T03:36:07.797Z,0.90
2023-03-12T03:38:54.538Z,0.90
2023-03-12T03:41:41.057Z,0.90
2023-03-12T03:44:27.827Z,0.90
2023-03-12T03:47:14.641Z,1.00
2023-03-12T03:50:02.283Z,1.00
2023-03-12T03:52:48.660Z,1.00
2023-03-12T03:55:37.512Z,1.00
2023-03-12T03:58:24.219Z,0.90
2023-03-12T04:01:11.299Z,0.90
2023-03-12T04:03:58.003Z,0.90
2023-03-12T04:06:45.725Z,0.90
2023-03-12T04:09:32.569Z,0.90
2023-03-12T04:12:19.485Z,0.90
2023-03-12T04:15:06.910Z,0.90
2023-03-12T04:17:53.482Z,0.90
2023-03-12T04:20:39.922Z,0.10
2023-03-12T04:23:27.934Z,0.90
2023-03-12T04:26:14.860Z,0.90
2023-03-12T04:29:01.730Z,0.90
2023-03-12T04:31:48.564Z,0.90
2023-03-12T04:34:35.647Z,0.80
2023-03-12T04:37:22.600Z,0.80
2023-03-12T04:40:12.545Z,0.80
2023-03-12T04:42:59.216Z,0.70
2023-03-12T04:45:45.506Z,0.70
2023-03-12T04:48:32.324Z,0.70
2023-03-12T04:51:19.121Z,0.70
2023-03-12T04:54:05.957Z,0.70
2023-03-12T04:56:53.699Z,0.70
2023-03-12T04:59:40.442Z,0.70
2023-03-12T05:02:26.766Z,1.80
2023-03-12T05:05:13.358Z,0.70
2023-03-12T05:08:00.302Z,0.70
2023-03-12T05:10:47.158Z,0.70
2023-03-12T05:13:34.860Z,0.70
2023-03-12T05:16:21.453Z,0.70
2023-03-12T05:19:08.381Z,0.70
2023-03-12T05:21:55.021Z,0.70
2023-03-12T05:24:41.422Z,0.70
2023-03-12T05:27:27.980Z,0.70
2023-03-12T05:30:16.448Z,0.70
2023-03-12T05:33:03.037Z,0.70
2023-03-12T05:35:49.598Z,0.70
2023-03-12T05:38:36.129Z,0.70
2023-03-12T05:41:25.067Z,0.70
2023-03-12T05:44:13.642Z,0.70
2023-03-12T05:47:01.417Z,0.70
2023-03-12T05:49:48.155Z,0.70
2023-03-12T05:52:34.963Z,0.60
2023-03-12T05:55:21.423Z,0.60
2023-03-12T05:58:08.918Z,0.60
2023-03-12T06:00:55.658Z,0.60
2023-03-12T06:03:43.957Z,0.60
2023-03-12T06:06:32.078Z,0.70
2023-03-12T06:09:18.482Z,0.70
2023-03-12T06:12:06.218Z,0.70
2023-03-12T06:14:52.760Z,0.70
2023-03-12T06:17:39.631Z,0.80
2023-03-12T06:20:27.557Z,0.80
2023-03-12T06:23:14.525Z,0.80
2023-03-12T06:26:01.141Z,0.90
2023-03-12T06:28:48.467Z,0.90
2023-03-12T06:31:37.327Z,1.00
2023-03-12T06:34:25.503Z,1.10
2023-03-12T06:37:13.566Z,1.20
2023-03-12T06:40:00.197Z,1.30
2023-03-12T06:42:46.734Z,1.30
2023-03-12T06:45:33.654Z,1.40
2023-03-12T06:48:19.899Z,1.50
2023-03-12T06:51:06.863Z,1.60
2023-03-12T06:53:54.540Z,1.70
2023-03-12T06:56:41.268Z,1.80
2023-03-12T06:59:28.583Z,1.90
2023-03-12T07:02:15.022Z,1.90
2023-03-12T07:05:01.825Z,1.90
2023-03-12T07:07:48.687Z,2.00
2023-03-12T07:10:36.450Z,2.10
2023-03-12T07:13:22.979Z,2.10
2023-03-12T07:16:10.215Z,2.20
2023-03-12T07:18:56.832Z,2.20
2023-03-12T07:21:43.185Z,2.30
2023-03-12T07:24:29.647Z,2.40
2023-03-12T07:27:17.472Z,2.50
2023-03-12T07:30:03.973Z,2.60
2023-03-12T07:32:50.358Z,2.60
2023-03-12T07:35:38.740Z,2.70
2023-03-12T07:38:25.277Z,2.80
2023-03-12T07:41:12.083Z,2.80
2023-03-12T07:43:59.794Z,2.80
2023-03-12T07:46:47.038Z,2.90
2023-03-12T07:49:33.375Z,2.90
2023-03-12T07:52:20.363Z,3.00
2023-03-12T07:55:08.135Z,3.00
2023-03-12T07:57:56.542Z,3.00
2023-03-12T08:00:45.165Z,3.10
2023-03-12T08:03:32.184Z,3.20
2023-03-12T08:06:18.965Z,3.20
2023-03-12T08:09:05.924Z,3.20
2023-03-12T08:11:52.547Z,3.10
2023-03-12T08:14:39.297Z,3.10
2023-03-12T08:17:27.409Z,3.20
2023-03-12T08:20:14.490Z,3.30
2023-03-12T08:23:01.299Z,3.20
2023-03-12T08:25:48.166Z,3.20
2023-03-12T08:28:34.594Z,3.30
2023-03-12T08:31:21.248Z,3.30
2023-03-12T08:34:09.399Z,3.40
2023-03-12T08:36:56.563Z,3.40
2023-03-12T08:39:43.256Z,3.40
2023-03-12T08:42:29.846Z,3.40
2023-03-12T08:45:16.806Z,3.50
2023-03-12T08:48:03.411Z,3.50
2023-03-12T08:50:51.401Z,3.60
2023-03-12T08:53:38.296Z,3.70
2023-03-12T08:56:25.040Z,3.80
2023-03-12T08:59:11.842Z,3.90
2023-03-12T09:01:58.196Z,3.90
2023-03-12T09:04:48.431Z,4.00
2023-03-12T09:07:36.920Z,4.10
2023-03-12T09:10:23.693Z,4.20
2023-03-12T09:13:10.010Z,4.20
2023-03-12T09:16:01.137Z,4.20
2023-03-12T09:18:47.816Z,4.30
2023-03-12T09:21:34.256Z,4.40
2023-03-12T09:24:21.974Z,4.60
2023-03-12T09:27:09.046Z,4.70
2023-03-12T09:30:00.491Z,4.70
2023-03-12T09:32:48.120Z,4.90
2023-03-12T09:35:34.704Z,4.80
2023-03-12T09:38:21.256Z,4.90
2023-03-12T09:41:19.308Z,5.00
2023-03-12T09:44:12.499Z,5.20
2023-03-12T09:47:02.981Z,5.30
2023-03-12T09:49:53.635Z,5.50
2023-03-12T09:52:45.484Z,5.50
2023-03-12T09:55:37.994Z,5.50
2023-03-12T09:58:30.324Z,5.40
2023-03-12T10:01:38.652Z,5.50
2023-03-12T10:04:37.783Z,5.50
2023-03-12T10:07:35.801Z,5.50
2023-03-12T10:10:31.759Z,5.50
2023-03-12T10:13:34.436Z,5.50
2023-03-12T10:16:36.197Z,5.60
2023-03-12T10:19:36.963Z,5.60
2023-03-12T10:22:36.581Z,5.40
2023-03-12T10:25:30.468Z,5.30
2023-03-12T10:28:20.753Z,5.20
2023-03-12T10:31:16.958Z,5.00
2023-03-12T10:34:10.186Z,5.00
2023-03-12T10:37:01.116Z,5.00
2023-03-12T10:39:48.844Z,5.10
2023-03-12T10:42:35.320Z,5.00
2023-03-12T10:45:32.921Z,5.00
2023-03-12T10:48:24.148Z,4.80
2023-03-12T10:51:12.888Z,4.90
2023-03-12T10:53:59.514Z,4.90
2023-03-12T10:56:50.973Z,4.80
2023-03-12T10:59:39.304Z,4.90
2023-03-12T11:02:35.721Z,4.90
2023-03-12T11:05:25.904Z,5.00
2023-03-12T11:08:23.403Z,5.00
2023-03-12T11:11:11.548Z,5.00
2023-03-12T11:14:08.960Z,5.00
2023-03-12T11:16:57.206Z,5.00
2023-03-12T11:19:43.771Z,4.90
2023-03-12T11:22:33.656Z,4.80
2023-03-12T11:25:24.538Z,4.80
2023-03-12T11:28:20.518Z,4.60
2023-03-12T11:31:11.224Z,4.60
2023-03-12T11:34:04.359Z,4.60
2023-03-12T11:36:57.379Z,4.50
2023-03-12T11:39:59.820Z,4.60
2023-03-12T11:43:01.932Z,4.50
2023-03-12T11:46:04.845Z,4.60
2023-03-12T11:49:03.652Z,4.60
2023-03-12T11:51:57.871Z,4.60
2023-03-12T11:55:06.387Z,4.50
2023-03-12T11:58:07.272Z,4.60
2023-03-12T12:00:58.978Z,4.60
2023-03-12T12:04:10.967Z,4.60
2023-03-12T12:07:10.001Z,4.50
2023-03-12T12:10:03.245Z,4.40
2023-03-12T12:12:58.375Z,4.40
2023-03-12T12:15:53.078Z,4.40
2023-03-12T12:18:54.515Z,4.40
2023-03-12T12:22:01.735Z,4.30
2023-03-12T12:25:12.456Z,4.30
2023-03-12T12:28:16.567Z,4.30
2023-03-12T12:31:17.551Z,4.40
2023-03-12T12:34:47.194Z,4.30
2023-03-12T12:37:44.434Z,4.40
2023-03-12T12:40:37.501Z,4.40
2023-03-12T12:43:29.133Z,4.40
2023-03-12T12:46:19.104Z,4.50
2023-03-12T12:49:11.084Z,4.50
2023-03-12T12:52:00.987Z,4.50
2023-03-12T12:54:56.047Z,4.60
2023-03-12T12:57:46.935Z,4.60
2023-03-12T13:00:48.478Z,4.70
2023-03-12T13:03:34.918Z,4.60
2023-03-12T13:06:21.352Z,4.70
2023-03-12T13:09:36.876Z,4.80
2023-03-12T13:12:30.510Z,4.80
2023-03-12T13:18:24.198Z,4.90
2023-03-12T13:21:21.178Z,4.90
2023-03-12T13:24:20.519Z,5.00
2023-03-12T13:27:14.295Z,5.00
2023-03-12T13:30:21.133Z,5.00
2023-03-12T13:33:14.071Z,5.10
2023-03-12T13:36:11.323Z,5.20
2023-03-12T13:39:00.312Z,5.10
2023-03-12T13:41:49.898Z,5.20
2023-03-12T13:44:40.453Z,5.20
2023-03-12T13:47:30.384Z,5.30
2023-03-12T13:50:18.956Z,5.30
2023-03-12T13:53:09.470Z,5.40
2023-03-12T13:56:05.628Z,5.40
2023-03-12T13:58:57.491Z,5.40
2023-03-12T14:01:49.994Z,5.40
2023-03-12T14:04:40.835Z,5.40
2023-03-12T14:07:46.143Z,5.50
2023-03-12T14:10:44.565Z,5.60
2023-03-12T14:13:48.956Z,5.70
2023-03-12T14:16:39.981Z,5.80
2023-03-12T14:19:28.971Z,6.00
2023-03-12T14:22:16.412Z,6.00
2023-03-12T14:25:07.659Z,6.10
2023-03-12T14:27:55.753Z,6.20
2023-03-12T14:30:47.847Z,6.20
2023-03-12T14:33:37.647Z,6.30
2023-03-12T14:36:28.177Z,6.30
2023-03-12T14:39:26.101Z,6.40
2023-03-12T14:42:21.655Z,6.30
2023-03-12T14:45:15.218Z,6.30
2023-03-12T14:48:01.973Z,6.40
2023-03-12T14:50:48.841Z,6.40
2023-03-12T14:53:37.139Z,6.40
2023-03-12T14:56:29.428Z,6.50
2023-03-12T14:59:29.310Z,6.50
2023-03-12T15:02:20.884Z,6.50
2023-03-12T15:05:15.991Z,6.50
2023-03-12T15:08:04.360Z,6.50
2023-03-12T15:10:55.811Z,6.50
2023-03-12T15:13:42.606Z,6.60
2023-03-12T15:16:29.508Z,6.70
2023-03-12T15:19:21.210Z,6.70
2023-03-12T15:22:11.779Z,6.80
2023-03-12T15:25:03.348Z,6.80
2023-03-12T15:27:50.501Z,6.80
2023-03-12T15:30:38.561Z,6.80
2023-03-12T15:33:25.718Z,6.90
2023-03-12T15:36:27.821Z,6.90
2023-03-12T15:39:26.411Z,7.00
2023-03-12T15:42:19.501Z,7.10
2023-03-12T15:45:09.882Z,7.10
2023-03-12T15:47:56.858Z,7.10
2023-03-12T15:50:44.728Z,7.20
2023-03-12T15:53:34.458Z,7.20
2023-03-12T15:56:24.417Z,7.30
2023-03-12T15:59:24.363Z,7.30
2023-03-12T16:02:13.347Z,7.30
2023-03-12T16:05:00.296Z,7.40
2023-03-12T16:07:46.952Z,7.40
2023-03-12T16:10:37.357Z,7.40
2023-03-12T16:13:28.587Z,7.40
2023-03-12T16:16:16.178Z,7.40
2023-03-12T16:19:03.468Z,7.50
2023-03-12T16:21:50.536Z,7.50
2023-03-12T16:24:37.193Z,7.50
2023-03-12T16:27:32.535Z,7.50
2023-03-12T16:30:24.989Z,7.50
2023-03-12T16:33:15.630Z,7.60
2023-03-12T16:36:02.431Z,7.60
2023-03-12T16:38:49.340Z,7.60
2023-03-12T16:41:35.810Z,7.70
2023-03-12T16:44:24.458Z,7.70
2023-03-12T16:47:12.732Z,7.70
2023-03-12T16:49:59.616Z,7.70
2023-03-12T16:52:48.154Z,7.80
2023-03-12T16:55:45.976Z,7.80
2023-03-12T16:58:32.566Z,7.80
2023-03-12T17:01:24.202Z,7.80
2023-03-12T17:04:12.375Z,7.80
2023-03-12T17:06:59.037Z,7.90
2023-03-12T17:09:45.548Z,7.90
2023-03-12T17:12:35.647Z,7.90
2023-03-12T17:15:25.843Z,7.90
2023-03-12T17:18:14.349Z,8.00
2023-03-12T17:21:01.086Z,8.00
2023-03-12T17:23:50.486Z,8.00
2023-03-12T17:26:37.128Z,8.10
2023-03-12T17:29:23.388Z,8.10
2023-03-12T17:32:09.886Z,8.10
2023-03-12T17:35:03.111Z,8.20
2023-03-12T17:37:49.660Z,8.20
2023-03-12T17:40:36.631Z,8.20
2023-03-12T17:43:23.654Z,8.30
2023-03-12T17:46:11.029Z,8.30
2023-03-12T17:48:58.271Z,8.30
2023-03-12T17:51:46.373Z,8.40
2023-03-12T17:54:32.849Z,8.40
2023-03-12T17:57:19.485Z,8.50
2023-03-12T18:00:12.798Z,8.50
2023-03-12T18:03:00.172Z,8.60
2023-03-12T18:05:46.656Z,8.60
2023-03-12T18:08:34.582Z,8.60
2023-03-12T18:11:20.954Z,8.60
2023-03-12T18:14:07.254Z,8.60
2023-03-12T18:16:53.725Z,8.70
2023-03-12T18:19:40.044Z,8.70
2023-03-12T18:22:27.016Z,8.70
2023-03-12T18:25:14.680Z,8.70
2023-03-12T18:28:01.460Z,8.70
2023-03-12T18:30:47.837Z,8.70
2023-03-12T18:33:35.272Z,8.70
2023-03-12T18:36:21.997Z,8.70
2023-03-12T18:39:09.801Z,8.80
2023-03-12T18:41:57.476Z,8.70
2023-03-12T18:44:44.030Z,8.80
2023-03-12T18:47:31.364Z,8.80
2023-03-12T18:50:18.257Z,8.80
2023-03-12T18:53:05.276Z,8.80
2023-03-12T18:55:53.280Z,8.80
2023-03-12T18:58:41.306Z,8.80
2023-03-12T19:01:28.083Z,8.80
2023-03-12T19:04:17.790Z,8.80
2023-03-12T19:07:05.195Z,8.90
2023-03-12T19:09:51.524Z,8.90
2023-03-12T19:12:51.051Z,8.90
2023-03-12T19:15:40.467Z,8.90
2023-03-12T19:18:27.237Z,8.90
2023-03-12T19:21:13.975Z,8.90
2023-03-12T19:24:00.404Z,8.90
2023-03-12T19:26:46.810Z,8.90
2023-03-12T19:29:33.383Z,8.80
2023-03-12T19:32:23.533Z,8.80
2023-03-12T19:35:13.501Z,8.80
2023-03-12T19:38:01.939Z,8.80
2023-03-12T19:40:50.224Z,8.80
2023-03-12T19:43:36.959Z,8.80
2023-03-12T19:46:23.670Z,8.80
2023-03-12T19:49:11.462Z,8.80
2023-03-12T19:51:58.067Z,8.80
2023-03-12T19:54:51.708Z,8.80
2023-03-12T19:57:41.877Z,8.80
2023-03-12T20:00:28.588Z,8.80
2023-03-12T20:03:15.208Z,8.80
2023-03-12T20:06:03.108Z,8.80
2023-03-12T20:08:50.069Z,8.80
2023-03-12T20:11:36.753Z,8.80
2023-03-12T20:14:23.450Z,8.80
2023-03-12T20:17:09.956Z,8.90
2023-03-12T20:19:56.282Z,8.80
2023-03-12T20:22:43.966Z,8.80
2023-03-12T20:25:30.775Z,9.80
2023-03-12T20:28:17.556Z,8.90
2023-03-12T20:31:08.949Z,8.90
2023-03-12T20:33:55.328Z,8.90
2023-03-12T20:36:41.922Z,8.90
2023-03-12T20:39:29.625Z,8.90
2023-03-12T20:42:16.360Z,8.90
2023-03-12T20:45:02.882Z,8.90
2023-03-12T20:47:49.384Z,9.00
2023-03-12T20:50:39.085Z,9.00
2023-03-12T20:53:25.856Z,9.00
2023-03-12T20:56:14.108Z,8.90
2023-03-12T20:59:00.920Z,8.90
2023-03-12T21:01:47.583Z,9.00
2023-03-12T21:04:34.112Z,8.90
2023-03-12T21:07:20.584Z,8.90
2023-03-12T21:10:08.362Z,8.90
2023-03-12T21:12:57.557Z,8.90
2023-03-12T21:15:44.256Z,8.90
2023-03-12T21:18:31.254Z,8.90
2023-03-12T21:21:18.215Z,8.90
2023-03-12T21:24:05.141Z,8.90
2023-03-12T21:26:51.666Z,8.90
2023-03-12T21:29:39.716Z,9.00
2023-03-12T21:32:26.526Z,9.00
2023-03-12T21:35:12.944Z,9.00
2023-03-12T21:37:59.891Z,9.10
2023-03-12T21:40:46.335Z,9.10
2023-03-12T21:43:32.746Z,9.10
2023-03-12T21:46:24.784Z,9.10
2023-03-12T21:49:11.511Z,9.20
2023-03-12T21:51:58.611Z,9.20
2023-03-12T21:54:45.080Z,9.20
2023-03-12T21:57:31.679Z,9.20
2023-03-12T22:00:18.723Z,9.30
2023-03-12T22:03:06.863Z,9.30
2023-03-12T22:05:53.214Z,9.30
2023-03-12T22:08:40.398Z,9.40
2023-03-12T22:11:27.125Z,9.30
2023-03-12T22:14:14.062Z,9.40
2023-03-12T22:17:00.692Z,9.30
2023-03-12T22:19:48.801Z,9.40
2023-03-12T22:22:35.529Z,9.40
2023-03-12T22:25:21.883Z,9.40
2023-03-12T22:28:08.372Z,9.40
2023-03-12T22:30:58.992Z,9.40
2023-03-12T22:33:45.912Z,9.40
2023-03-12T22:36:33.953Z,9.40
2023-03-12T22:39:20.270Z,9.40
2023-03-12T22:42:06.875Z,9.40
2023-03-12T22:44:53.275Z,9.40
2023-03-12T22:47:39.717Z,9.40
2023-03-12T22:50:26.147Z,9.50
2023-03-12T22:53:13.930Z,9.50
2023-03-12T22:56:01.773Z,9.50
2023-03-12T22:58:48.935Z,9.50
2023-03-12T23:01:35.473Z,9.50
2023-03-12T23:04:21.956Z,9.50
2023-03-12T23:07:14.494Z,9.60
2023-03-12T23:10:06.116Z,9.50
2023-03-12T23:12:52.553Z,9.50
2023-03-12T23:15:41.191Z,9.60
2023-03-12T23:18:28.261Z,9.60
2023-03-12T23:21:16.795Z,9.60
2023-03-12T23:24:03.333Z,9.60
2023-03-12T23:26:51.172Z,9.60
2023-03-12T23:29:37.803Z,9.60
2023-03-12T23:32:24.510Z,9.60
2023-03-12T23:35:11.137Z,9.60
2023-03-12T23:37:58.123Z,9.60
2023-03-12T23:40:46.492Z,9.60
2023-03-12T23:43:35.009Z,9.60
2023-03-12T23:46:21.882Z,9.70
2023-03-12T23:49:08.976Z,9.70
2023-03-12T23:51:55.299Z,9.70
2023-03-12T23:54:41.708Z,9.80
2023-03-12T23:57:28.243Z,9.70
